Terminal Aerodrome Forecast
Issued by NWS Albany, NY

Home | Current Version | Previous Version | Text Only | Print | Product List | Glossary On
Versions: 1 2 3 4 5 6 7 8 9 10 11 12 13 14 15 16 17 18 19
840
FTUS41 KALY 200532
TAFPOU
TAF
KPOU 200532Z 2006/2106 25010KT P6SM SCT045
     FM201400 27014G22KT P6SM SCT045
     FM202200 24007KT P6SM SCT045=

USA.gov is the U.S. government's official web portal to all federal, state and local government web resources and services.